Ipoh, Malaysia
Current Conditions -  °F | °C
As of 5:00 PM on Wednesday 28 Jan 2015 (Local Time) from WMKI Reporting Station
Scattered Clouds Scattered Clouds  
Wind Chill: 90°   Ceiling: Unl
Heat Index: 98°   Visibility: 6mi
Dew Point: 73°   Wind: 5mph
Humidity: 59%   Direction: 220°SW
Pressure: 29.77"   Gusts: 16mph
Location:  4.6°N, 101.07°E
Report Text: WMKI 280900Z 22004G14KT 140V280 9999 FEW020 SCT300 32/23 Q1008
Loading
Personal Weather Stations






























Interactive Weather Map New forecast layout! Learn more

10-Day Weather Forecast

Advertisements
Track Severe Weather on mobile